Time;durP1;ratioP1;P1;durP2;ratioP2;P2;SDS_P1;SDS_P2;PMS_P1;PMS_P2;Temp;Humidity;BMP_temperature;BMP_pressure;BME280_temperature;BME280_humidity;BME280_pressure;Samples;Min_cycle;Max_cycle;Signal;HPM_P1;HPM_P2
2023/11/20 00:02:24;;;;;;;1.77;0.87;;;;;;;-145.69;62.70;52266.16;5119372;27;20279;-81
2023/11/20 00:04:52;;;;;;;2.93;0.90;;;;;;;-145.69;62.65;52274.06;5132285;27;20201;-81
2023/11/20 00:07:19;;;;;;;4.07;1.00;;;;;;;-145.69;62.44;52285.97;5113002;28;20236;-81
2023/11/20 00:09:45;;;;;;;2.43;1.17;;;;;;;-145.69;62.97;52282.00;5113211;28;20200;-81
2023/11/20 00:12:11;;;;;;;5.83;1.33;;;;;;;-145.69;63.82;52266.16;5113351;28;20208;-81
2023/11/20 00:14:39;;;;;;;1.57;0.90;;;;;;;-145.69;64.16;52319.63;5113330;28;20204;-81
2023/11/20 00:17:05;;;;;;;4.30;0.90;;;;;;;-145.69;63.92;52321.59;5113430;28;20205;-81
2023/11/20 00:19:32;;;;;;;2.37;1.00;;;;;;;-145.69;63.70;52297.84;5113437;28;20232;-81
2023/11/20 00:22:00;;;;;;;1.20;0.80;;;;;;;-145.69;63.48;52272.09;5113376;28;20205;-81
2023/11/20 00:24:27;;;;;;;2.03;0.90;;;;;;;-145.69;63.39;52313.69;5113099;28;20691;-81
2023/11/20 00:26:53;;;;;;;0.97;0.80;;;;;;;-145.69;62.78;52315.66;5113262;28;20211;-80
2023/11/20 00:29:19;;;;;;;1.37;1.00;;;;;;;-145.69;63.31;52309.72;5113126;28;20201;-81
2023/11/20 00:31:46;;;;;;;1.77;0.90;;;;;;;-145.69;63.68;52321.59;5098732;28;20206;-81
2023/11/20 00:34:12;;;;;;;4.00;0.80;;;;;;;-145.69;64.11;52305.75;5133788;28;20199;-81
2023/11/20 00:36:39;;;;;;;1.27;0.87;;;;;;;-145.69;64.32;52325.56;5133820;28;20200;-80
2023/11/20 00:39:06;;;;;;;2.17;0.93;;;;;;;-145.69;64.82;52335.47;5133621;28;20229;-81
2023/11/20 00:41:35;;;;;;;3.03;0.90;;;;;;;-145.69;64.88;52317.66;5120688;28;20201;-81
2023/11/20 00:44:01;;;;;;;2.07;1.10;;;;;;;-145.69;65.38;52325.56;5112975;28;20201;-81
2023/11/20 00:46:28;;;;;;;2.00;1.80;;;;;;;-145.69;65.21;52319.63;5113074;28;20224;-81
2023/11/20 00:48:54;;;;;;;2.83;0.90;;;;;;;-145.69;64.86;52311.69;5112543;28;20202;-81
2023/11/20 00:51:21;;;;;;;1.80;1.10;;;;;;;-145.69;65.11;52325.56;5112723;28;20197;-80
2023/11/20 00:53:49;;;;;;;3.40;1.10;;;;;;;-145.69;65.09;52317.66;5112788;28;20193;-80
2023/11/20 00:56:19;;;;;;;2.03;1.00;;;;;;;-145.69;65.08;52343.38;5112879;28;20247;-81
2023/11/20 00:58:45;;;;;;;1.93;0.87;;;;;;;-145.69;65.02;52321.59;5112672;28;20225;-80
2023/11/20 01:01:11;;;;;;;2.70;1.10;;;;;;;-145.69;65.19;52325.56;5112941;28;20197;-80
2023/11/20 01:03:38;;;;;;;1.67;1.10;;;;;;;-145.69;66.60;52307.75;5114231;28;20204;-81
2023/11/20 01:06:06;;;;;;;2.73;1.10;;;;;;;-145.69;66.08;52323.59;5116461;28;20236;-81
2023/11/20 01:08:33;;;;;;;1.77;0.93;;;;;;;-145.69;66.28;52307.75;5116364;28;20225;-80
2023/11/20 01:10:59;;;;;;;2.43;1.13;;;;;;;-145.69;65.66;52331.50;5116696;28;20251;-81
2023/11/20 01:13:27;;;;;;;5.67;1.00;;;;;;;-145.69;66.70;52317.66;5116281;28;20570;-81
2023/11/20 01:15:53;;;;;;;3.27;0.97;;;;;;;-145.69;67.91;52313.69;5116647;28;20205;-81
2023/11/20 01:18:20;;;;;;;5.07;1.10;;;;;;;-145.69;66.90;52367.16;5116384;28;20565;-81
2023/11/20 01:20:46;;;;;;;4.77;1.53;;;;;;;-145.69;67.52;52323.59;5116463;28;20652;-81
2023/11/20 01:23:13;;;;;;;2.70;1.03;;;;;;;-145.69;67.29;52315.66;5116324;28;20830;-81
2023/11/20 01:25:39;;;;;;;3.53;1.30;;;;;;;-145.69;67.09;52329.53;5116345;28;20202;-81
2023/11/20 01:28:06;;;;;;;3.80;1.30;;;;;;;-145.69;67.84;52345.38;5115689;28;20204;-81
2023/11/20 01:30:34;;;;;;;6.17;1.60;;;;;;;-145.69;67.86;52341.41;5116314;28;20639;-81
2023/11/20 01:33:00;;;;;;;10.67;1.60;;;;;;;-145.69;67.75;52315.66;5116083;28;20649;-80
2023/11/20 01:35:27;;;;;;;6.13;1.33;;;;;;;-145.69;67.33;52329.53;5116106;28;20204;-81
2023/11/20 01:37:53;;;;;;;6.60;1.37;;;;;;;-145.69;66.80;52335.47;5116198;28;20194;-81
2023/11/20 01:40:20;;;;;;;4.13;1.30;;;;;;;-145.69;68.01;52345.38;5115838;28;20229;-80
2023/11/20 01:42:46;;;;;;;5.33;1.57;;;;;;;-145.69;68.62;52345.38;5116056;28;20198;-81
2023/11/20 01:45:13;;;;;;;4.90;1.47;;;;;;;-145.69;68.59;52323.59;5115933;28;20242;-81
2023/11/20 01:47:41;;;;;;;4.83;1.33;;;;;;;-145.69;69.38;52333.47;5116005;28;20193;-80
2023/11/20 01:50:11;;;;;;;4.70;1.20;;;;;;;-145.69;69.21;52335.47;5115707;28;20193;-81
2023/11/20 01:52:40;;;;;;;2.97;1.37;;;;;;;-145.69;68.89;52343.38;5115542;28;20204;-81
2023/11/20 01:55:09;;;;;;;3.77;1.20;;;;;;;-145.69;67.40;52297.84;5116006;27;20220;-81
2023/11/20 01:57:37;;;;;;;2.83;1.40;;;;;;;-145.69;67.33;52329.53;5115978;28;20341;-80
2023/11/20 02:00:09;;;;;;;9.63;1.70;;;;;;;-145.69;67.30;52361.22;5115591;28;20699;-80
2023/11/20 02:02:37;;;;;;;10.57;2.03;;;;;;;-145.69;67.45;52337.44;5115666;28;20566;-80
2023/11/20 02:05:06;;;;;;;2.80;1.23;;;;;;;-145.69;67.30;52272.09;5115518;28;20220;-80
2023/11/20 02:07:33;;;;;;;10.70;1.20;;;;;;;-145.69;67.46;52307.75;5115309;28;20237;-80
2023/11/20 02:10:00;;;;;;;3.00;1.10;;;;;;;-145.69;67.07;52333.47;5115620;28;20205;-80
2023/11/20 02:12:26;;;;;;;4.10;1.30;;;;;;;-145.69;67.08;52333.47;5115474;28;20201;-80
2023/11/20 02:14:53;;;;;;;7.63;1.13;;;;;;;-145.69;67.31;52327.53;5115254;28;20201;-80
2023/11/20 02:17:20;;;;;;;3.90;1.00;;;;;;;-145.69;67.28;52319.63;5115467;28;20193;-81
2023/11/20 02:19:47;;;;;;;2.40;1.10;;;;;;;-145.69;67.71;52329.53;5114907;28;20225;-80
2023/11/20 02:22:15;;;;;;;5.00;1.30;;;;;;;-145.69;67.45;52289.91;5115467;28;20270;-81
2023/11/20 02:24:42;;;;;;;7.03;1.67;;;;;;;-145.69;67.52;52317.66;5114799;28;20205;-80
2023/11/20 02:27:22;;;;;;;9.17;1.90;;;;;;;-145.69;67.33;52307.75;5115409;28;20205;-81
2023/11/20 02:29:53;;;;;;;7.63;1.77;;;;;;;-145.69;67.10;52282.00;5115261;27;20250;-80
2023/11/20 02:32:20;;;;;;;8.23;1.17;;;;;;;-145.69;66.87;52319.63;5115047;28;20709;-81
2023/11/20 02:34:46;;;;;;;4.20;1.30;;;;;;;-145.69;66.48;52305.75;5115203;28;20198;-81
2023/11/20 02:37:12;;;;;;;3.67;1.20;;;;;;;-145.69;67.31;52289.91;5112671;28;20541;-81
2023/11/20 02:39:39;;;;;;;2.37;1.20;;;;;;;-145.69;67.15;52321.59;5114368;28;20225;-80
2023/11/20 02:42:06;;;;;;;1.93;1.07;;;;;;;-145.69;67.30;52333.47;5114825;28;20205;-81
2023/11/20 02:44:36;;;;;;;5.43;1.40;;;;;;;-145.69;66.38;52285.97;5114817;28;20201;-80
2023/11/20 02:47:05;;;;;;;6.43;1.33;;;;;;;-145.69;65.57;52299.81;5114987;28;20210;-80
2023/11/20 02:49:31;;;;;;;11.07;1.17;;;;;;;-145.69;66.51;52301.81;5114750;28;20205;-81
2023/11/20 02:51:58;;;;;;;8.30;1.50;;;;;;;-145.69;66.48;52289.91;5114786;28;20201;-81
2023/11/20 02:54:24;;;;;;;3.97;1.30;;;;;;;-145.69;65.91;52331.50;5114281;28;20190;-81
2023/11/20 02:56:50;;;;;;;8.67;1.63;;;;;;;-145.69;66.01;52337.44;5114658;28;20193;-81
2023/11/20 02:59:17;;;;;;;4.30;1.20;;;;;;;-145.69;65.29;52311.69;5114164;28;20221;-80
2023/11/20 03:01:46;;;;;;;8.00;1.13;;;;;;;-145.69;65.66;52297.84;5114395;28;20204;-81
2023/11/20 03:04:15;;;;;;;7.37;1.27;;;;;;;-145.69;63.53;52305.75;5114548;28;20202;-81
2023/11/20 03:06:41;;;;;;;4.57;1.20;;;;;;;-145.69;63.28;52297.84;5114369;28;20201;-81
2023/11/20 03:09:08;;;;;;;7.10;1.60;;;;;;;-145.69;62.02;52278.03;5114068;28;20194;-81
2023/11/20 03:11:34;;;;;;;8.77;1.47;;;;;;;-145.69;61.08;52280.00;5114385;28;20208;-81
2023/11/20 03:14:01;;;;;;;6.77;1.30;;;;;;;-145.69;60.56;52289.91;5114347;28;20201;-81
2023/11/20 03:16:27;;;;;;;4.40;1.40;;;;;;;-145.69;59.42;52270.13;5114415;28;20283;-80
2023/11/20 03:18:54;;;;;;;8.30;1.30;;;;;;;-145.69;58.68;52289.91;5113949;28;20216;-81
2023/11/20 03:21:22;;;;;;;6.27;1.23;;;;;;;-145.69;56.15;52272.09;5113531;28;20683;-81
2023/11/20 03:23:49;;;;;;;7.97;1.23;;;;;;;-145.69;55.54;52274.06;5113865;28;20197;-81
2023/11/20 03:26:15;;;;;;;6.20;1.17;;;;;;;-145.69;55.30;52258.22;5113384;28;20201;-80
2023/11/20 03:28:42;;;;;;;5.57;1.10;;;;;;;-145.69;55.24;52291.91;5113906;28;20208;-81
2023/11/20 03:31:08;;;;;;;5.73;1.73;;;;;;;-145.69;54.73;52258.22;5114087;28;20223;-80
2023/11/20 03:33:35;;;;;;;4.87;1.10;;;;;;;-145.69;54.99;52270.13;5113777;28;20197;-79
2023/11/20 03:36:01;;;;;;;4.43;1.10;;;;;;;-145.69;54.66;52238.44;5113937;28;20212;-81
2023/11/20 03:38:29;;;;;;;10.20;1.33;;;;;;;-145.69;54.15;52258.22;5113588;28;20205;-80
2023/11/20 03:40:55;;;;;;;7.17;1.10;;;;;;;-145.69;53.85;52285.97;5101818;28;20707;-80
2023/11/20 03:43:23;;;;;;;3.97;1.17;;;;;;;-145.69;52.36;52238.44;5113688;28;20205;-81
2023/11/20 03:45:50;;;;;;;7.93;1.30;;;;;;;-145.69;52.26;52264.16;5113717;28;20280;-81
2023/11/20 03:48:18;;;;;;;8.57;1.43;;;;;;;-145.69;52.17;52307.75;5113856;28;20573;-82
2023/11/20 03:50:44;;;;;;;11.27;1.27;;;;;;;-145.69;51.83;52258.22;5113991;27;20194;-81
2023/11/20 03:53:11;;;;;;;6.60;1.10;;;;;;;-145.69;51.74;52250.31;5113668;28;20213;-81
2023/11/20 03:55:39;;;;;;;6.00;1.10;;;;;;;-145.69;51.43;52246.34;5113402;28;20728;-81
2023/11/20 03:58:06;;;;;;;6.73;1.07;;;;;;;-145.69;51.33;52268.13;5113778;28;20200;-81
2023/11/20 04:00:32;;;;;;;7.97;1.60;;;;;;;-145.69;50.38;52274.06;5113393;28;20221;-80
2023/11/20 04:02:59;;;;;;;10.87;1.60;;;;;;;-145.69;50.40;52270.13;5113577;28;20198;-80
2023/11/20 04:05:26;;;;;;;6.00;1.40;;;;;;;-145.69;50.34;52289.91;5113490;28;20258;-81
2023/11/20 04:07:52;;;;;;;5.63;1.20;;;;;;;-145.69;50.29;52282.00;5113432;28;20236;-81
2023/11/20 04:10:18;;;;;;;7.33;1.17;;;;;;;-145.69;50.88;52250.31;5113270;28;20201;-80
2023/11/20 04:12:46;;;;;;;5.63;1.23;;;;;;;-145.69;50.92;52291.91;5113615;28;20200;-81
2023/11/20 04:15:13;;;;;;;7.63;1.50;;;;;;;-145.69;50.63;52254.28;5113638;28;20201;-80
2023/11/20 04:17:40;;;;;;;4.20;1.10;;;;;;;-145.69;50.99;52252.28;5113423;28;20201;-81
2023/11/20 04:20:08;;;;;;;10.20;1.60;;;;;;;-145.69;51.05;52291.91;5113062;28;20225;-81
2023/11/20 04:22:34;;;;;;;6.57;1.30;;;;;;;-145.69;50.88;52262.19;5113293;28;20270;-80
2023/11/20 04:25:02;;;;;;;12.43;1.70;;;;;;;-145.69;51.23;52276.06;5113162;28;20197;-81
2023/11/20 04:27:28;;;;;;;7.83;1.57;;;;;;;-145.69;51.02;52268.13;5113388;28;20200;-81
2023/11/20 04:29:56;;;;;;;7.27;1.27;;;;;;;-145.69;51.10;52285.97;5112910;28;20212;-81
2023/11/20 04:32:23;;;;;;;9.90;1.20;;;;;;;-145.69;51.30;52295.84;5113129;28;20197;-81
2023/11/20 04:34:49;;;;;;;6.33;1.30;;;;;;;-145.69;51.30;52278.03;5113156;28;20197;-80
2023/11/20 04:37:16;;;;;;;5.30;1.43;;;;;;;-145.69;51.62;52254.28;5113586;28;20577;-80
2023/11/20 04:39:42;;;;;;;10.20;1.40;;;;;;;-145.69;51.58;52282.00;5117228;28;20711;-81
2023/11/20 04:42:09;;;;;;;4.93;1.33;;;;;;;-145.69;52.19;52272.09;5117151;28;20197;-81
2023/11/20 04:44:35;;;;;;;6.97;1.30;;;;;;;-145.69;52.39;52246.34;5116545;27;20806;-80
2023/11/20 04:47:03;;;;;;;4.43;1.27;;;;;;;-145.69;51.50;52242.38;5101313;28;20206;-81
2023/11/20 04:49:29;;;;;;;8.98;1.45;;;;;;;-145.69;51.83;52262.19;5096834;28;20225;-81
2023/11/20 04:51:56;;;;;;;11.03;1.47;;;;;;;-145.69;52.42;52262.19;5096601;28;20214;-81
2023/11/20 04:54:22;;;;;;;8.43;1.67;;;;;;;-145.69;51.84;52252.28;5096764;28;20255;-81
2023/11/20 04:56:49;;;;;;;8.05;1.10;;;;;;;-145.69;52.50;52258.22;5096659;28;20213;-81
2023/11/20 04:59:15;;;;;;;7.15;0.93;;;;;;;-145.69;52.08;52250.31;5096440;28;20542;-81
2023/11/20 05:01:42;;;;;;;8.10;1.37;;;;;;;-145.69;51.43;52282.00;5096429;28;20224;-81
2023/11/20 05:04:09;;;;;;;8.23;1.65;;;;;;;-145.69;52.24;52250.31;5096306;28;20700;-80
2023/11/20 05:06:36;;;;;;;10.70;1.40;;;;;;;-145.69;51.63;52258.22;5096088;28;20209;-81
2023/11/20 05:09:03;;;;;;;5.17;1.03;;;;;;;-145.69;51.05;52254.28;5096675;28;20194;-81
2023/11/20 05:11:29;;;;;;;7.03;1.23;;;;;;;-145.69;51.23;52262.19;5096351;28;20199;-81
2023/11/20 05:13:58;;;;;;;9.18;1.70;;;;;;;-145.69;51.31;52242.38;5111850;27;20197;-80
2023/11/20 05:16:28;;;;;;;6.65;1.55;;;;;;;-145.69;50.75;52250.31;5116125;28;20286;-80
2023/11/20 05:18:54;;;;;;;3.60;1.43;;;;;;;-145.69;50.62;52258.22;5116505;28;20250;-81
2023/11/20 05:21:22;;;;;;;8.80;1.77;;;;;;;-145.69;49.83;52234.47;5116250;28;20702;-80
2023/11/20 05:23:49;;;;;;;12.87;1.67;;;;;;;-145.69;49.67;52254.28;5116852;28;20594;-81
2023/11/20 05:26:18;;;;;;;11.40;1.57;;;;;;;-145.69;48.99;52268.13;5116382;28;20193;-80
2023/11/20 05:28:44;;;;;;;15.82;1.60;;;;;;;-145.69;48.85;52218.63;5116447;28;20201;-80
2023/11/20 05:31:10;;;;;;;9.63;1.30;;;;;;;-145.69;48.55;52280.00;5116321;28;20190;-81
2023/11/20 05:33:37;;;;;;;7.53;1.70;;;;;;;-145.69;48.97;52228.53;5116518;28;20209;-81
2023/11/20 05:36:04;;;;;;;12.93;1.45;;;;;;;-145.69;49.08;52242.38;5116533;28;20207;-80
2023/11/20 05:38:33;;;;;;;4.33;1.03;;;;;;;-145.69;48.35;52252.28;5116434;28;20208;-82
2023/11/20 05:40:59;;;;;;;7.65;1.38;;;;;;;-145.69;48.87;52250.31;5116091;28;20236;-80
2023/11/20 05:43:26;;;;;;;8.80;1.30;;;;;;;-145.69;48.66;52254.28;5116162;28;20204;-80
2023/11/20 05:45:52;;;;;;;13.70;1.43;;;;;;;-145.69;48.60;52246.34;5115193;28;20200;-80
2023/11/20 05:48:19;;;;;;;4.73;1.20;;;;;;;-145.69;48.48;52236.44;5115646;28;20197;-80
2023/11/20 05:50:45;;;;;;;7.17;1.17;;;;;;;-145.69;48.87;52254.28;5115338;28;20198;-80
2023/11/20 05:53:12;;;;;;;4.22;1.13;;;;;;;-145.69;49.09;52252.28;5116049;27;20564;-80
2023/11/20 05:55:40;;;;;;;5.97;1.13;;;;;;;-145.69;49.05;52232.50;5115934;28;20243;-81
2023/11/20 05:58:06;;;;;;;14.40;1.73;;;;;;;-145.69;49.27;52242.38;5115950;28;20198;-81
2023/11/20 06:00:33;;;;;;;2.97;1.13;;;;;;;-145.69;48.77;52226.53;5115268;28;20222;-81
2023/11/20 06:03:00;;;;;;;5.70;1.23;;;;;;;-145.69;49.33;52250.31;5115072;28;20218;-81
2023/11/20 06:05:26;;;;;;;8.38;1.17;;;;;;;-145.69;48.57;52232.50;5115851;28;20198;-81
2023/11/20 06:07:52;;;;;;;6.30;1.30;;;;;;;-145.69;48.95;52244.38;5115288;28;20237;-80
2023/11/20 06:10:19;;;;;;;7.32;1.17;;;;;;;-145.69;48.95;52266.16;5115413;28;20553;-80
2023/11/20 06:12:47;;;;;;;6.40;1.57;;;;;;;-145.69;48.52;52242.38;5115298;28;20278;-80
2023/11/20 06:15:13;;;;;;;12.77;1.75;;;;;;;-145.69;48.36;52248.34;5115172;28;20200;-81
2023/11/20 06:17:40;;;;;;;8.80;2.38;;;;;;;-145.69;48.83;52238.44;5115291;28;20197;-80
2023/11/20 06:20:08;;;;;;;9.30;1.87;;;;;;;-145.69;48.82;52242.38;5115291;28;20214;-81
2023/11/20 06:22:35;;;;;;;14.90;1.40;;;;;;;-145.69;48.60;52244.38;5115570;28;20198;-81
2023/11/20 06:25:01;;;;;;;7.75;1.50;;;;;;;-145.69;48.85;52254.28;5115355;28;20224;-81
2023/11/20 06:27:27;;;;;;;5.47;1.37;;;;;;;-145.69;49.19;52264.16;5114940;28;20201;-81
2023/11/20 06:29:55;;;;;;;9.23;1.40;;;;;;;-145.69;48.64;52248.34;5115145;28;20664;-80
2023/11/20 06:32:23;;;;;;;6.38;1.10;;;;;;;-145.69;48.42;52248.34;5115339;28;20204;-80
2023/11/20 06:34:49;;;;;;;7.37;1.10;;;;;;;-145.69;48.85;52258.22;5115051;28;20660;-80
2023/11/20 06:37:16;;;;;;;3.85;0.98;;;;;;;-145.69;49.13;52260.22;5114811;28;20202;-82
2023/11/20 06:39:43;;;;;;;3.93;1.30;;;;;;;-145.69;48.85;52238.44;5114873;28;20227;-81
2023/11/20 06:42:09;;;;;;;9.93;2.40;;;;;;;-145.69;48.61;52232.50;5114898;28;20579;-82
2023/11/20 06:44:37;;;;;;;11.45;1.95;;;;;;;-145.69;48.86;52238.44;5114160;27;20193;-81
2023/11/20 06:47:07;;;;;;;8.07;1.67;;;;;;;-145.69;49.08;52254.28;5114745;28;20199;-81
2023/11/20 06:49:34;;;;;;;6.80;1.60;;;;;;;-145.69;49.17;52262.19;5115322;28;20201;-81
2023/11/20 06:52:00;;;;;;;11.17;1.83;;;;;;;-145.69;49.28;52254.28;5098687;28;20210;-80
2023/11/20 06:54:27;;;;;;;8.37;2.27;;;;;;;-145.69;49.12;52258.22;5094259;28;20198;-80
2023/11/20 06:56:53;;;;;;;8.47;1.80;;;;;;;-145.69;48.87;52250.31;5094223;28;20230;-81
2023/11/20 06:59:20;;;;;;;7.03;1.37;;;;;;;-145.69;49.08;52250.31;5094514;28;20202;-81
2023/11/20 07:01:47;;;;;;;6.27;1.23;;;;;;;-145.69;48.95;52254.28;5093086;28;20218;-81
2023/11/20 07:04:18;;;;;;;8.33;1.63;;;;;;;-145.69;48.87;52254.28;5093768;28;20213;-81
2023/11/20 07:06:44;;;;;;;11.70;2.23;;;;;;;-145.69;49.10;52226.53;5098285;28;20903;-81
2023/11/20 07:09:14;;;;;;;6.67;1.60;;;;;;;-145.69;49.29;52254.28;5112414;28;20201;-81
2023/11/20 07:11:40;;;;;;;5.90;1.58;;;;;;;-145.69;49.14;52240.41;5112441;28;20278;-81
2023/11/20 07:14:08;;;;;;;6.82;1.55;;;;;;;-145.69;48.72;52234.47;5112523;28;20205;-81
2023/11/20 07:16:35;;;;;;;9.87;1.80;;;;;;;-145.69;49.17;52244.38;5111903;28;20204;-81
2023/11/20 07:19:01;;;;;;;9.23;1.77;;;;;;;-145.69;48.74;52266.16;5112393;28;20193;-81
2023/11/20 07:21:30;;;;;;;8.80;1.63;;;;;;;-145.69;49.31;52254.28;5113954;28;20225;-81
2023/11/20 07:23:57;;;;;;;11.77;1.63;;;;;;;-145.69;49.17;52210.72;5114243;28;20236;-81
2023/11/20 07:26:24;;;;;;;6.83;1.53;;;;;;;-145.69;48.60;52246.34;5114192;28;20204;-81
2023/11/20 07:28:50;;;;;;;9.20;1.93;;;;;;;-145.69;48.29;52226.53;5114107;28;20549;-82
2023/11/20 07:31:25;;;;;;;6.10;1.80;;;;;;;-145.69;47.78;52240.41;5114080;28;20193;-82
2023/11/20 07:33:51;;;;;;;11.32;2.80;;;;;;;-145.69;47.35;52226.53;5113940;28;20197;-82
2023/11/20 07:36:18;;;;;;;12.32;2.08;;;;;;;-145.69;48.16;52246.34;5113155;28;20198;-81
2023/11/20 07:38:47;;;;;;;7.23;1.47;;;;;;;-145.69;47.35;52270.13;5113251;28;20212;-82
2023/11/20 07:41:13;;;;;;;7.03;1.23;;;;;;;-145.69;47.78;52244.38;5113936;28;20252;-82
2023/11/20 07:43:40;;;;;;;9.40;1.70;;;;;;;-145.69;47.88;52262.19;5113716;28;20201;-82
2023/11/20 07:46:07;;;;;;;7.47;1.50;;;;;;;-145.69;47.15;52230.50;5113713;28;20560;-82
2023/11/20 07:48:34;;;;;;;16.57;2.40;;;;;;;-145.69;47.35;52242.38;5113675;28;20236;-82
2023/11/20 07:51:02;;;;;;;6.23;1.50;;;;;;;-145.69;47.07;52240.41;5113564;28;20284;-82
2023/11/20 07:53:28;;;;;;;9.73;1.77;;;;;;;-145.69;46.10;52246.34;5113758;28;20208;-82
2023/11/20 07:55:57;;;;;;;8.70;2.00;;;;;;;-145.69;46.92;52254.28;5113886;28;20205;-82
2023/11/20 07:58:26;;;;;;;7.47;1.40;;;;;;;-145.69;46.60;52238.44;5113478;28;20197;-81
2023/11/20 08:00:52;;;;;;;7.33;1.20;;;;;;;-145.69;46.78;52212.69;5113576;28;20232;-82
2023/11/20 08:03:19;;;;;;;7.97;1.63;;;;;;;-145.69;46.71;52256.25;5113283;28;20201;-82
2023/11/20 08:05:46;;;;;;;7.80;1.50;;;;;;;-145.69;46.73;52246.34;5113385;28;20204;-82
2023/11/20 08:08:13;;;;;;;11.03;2.10;;;;;;;-145.69;46.80;52238.44;5113022;28;20312;-82
2023/11/20 08:10:40;;;;;;;5.97;1.50;;;;;;;-145.69;46.21;52220.59;5113301;28;20193;-82
2023/11/20 08:13:08;;;;;;;5.50;1.40;;;;;;;-145.69;46.53;52234.47;5113276;28;20243;-82
2023/11/20 08:15:34;;;;;;;12.07;1.50;;;;;;;-145.69;46.71;52278.03;5113003;28;20197;-82
2023/11/20 08:18:01;;;;;;;11.47;1.50;;;;;;;-145.69;46.54;52285.97;5113225;28;20208;-82
2023/11/20 08:20:29;;;;;;;8.95;1.63;;;;;;;-145.69;46.63;52226.53;5113045;28;20706;-81
2023/11/20 08:22:56;;;;;;;7.03;1.40;;;;;;;-145.69;46.40;52230.50;5113476;28;20197;-82
2023/11/20 08:25:24;;;;;;;8.00;1.53;;;;;;;-145.69;46.21;52224.56;5113258;28;20595;-83
2023/11/20 08:27:50;;;;;;;7.10;1.43;;;;;;;-145.69;46.51;52250.31;5112936;28;20194;-83
2023/11/20 08:30:18;;;;;;;9.60;1.70;;;;;;;-145.69;46.30;52246.34;5113029;28;20197;-82
2023/11/20 08:32:45;;;;;;;7.20;1.30;;;;;;;-145.69;46.23;52250.31;5112894;28;20186;-83
2023/11/20 08:35:11;;;;;;;12.10;1.70;;;;;;;-145.69;45.92;52204.75;5113303;28;20201;-83
2023/11/20 08:37:38;;;;;;;5.78;1.35;;;;;;;-145.69;45.71;52230.50;5113300;28;20201;-82
2023/11/20 08:40:08;;;;;;;10.48;1.52;;;;;;;-145.69;45.71;52212.69;5113174;28;20590;-82
2023/11/20 08:42:35;;;;;;;11.43;1.80;;;;;;;-145.69;45.59;52210.72;5113210;28;20217;-83
2023/11/20 08:45:01;;;;;;;6.67;1.60;;;;;;;-145.69;45.64;52226.53;5113052;28;20193;-82
2023/11/20 08:47:29;;;;;;;8.17;1.33;;;;;;;-145.69;45.78;52232.50;5112963;28;20197;-83
2023/11/20 08:49:55;;;;;;;5.83;1.00;;;;;;;-145.69;45.36;52274.06;5095136;28;20206;-82
2023/11/20 08:52:22;;;;;;;6.00;1.67;;;;;;;-145.69;45.41;52236.44;5092634;28;20657;-81
2023/11/20 08:54:48;;;;;;;11.90;1.20;;;;;;;-145.69;45.04;52254.28;5092571;28;20205;-82
2023/11/20 08:57:14;;;;;;;11.05;1.92;;;;;;;-145.69;45.14;52192.88;5092944;28;20194;-82
2023/11/20 08:59:41;;;;;;;12.48;1.42;;;;;;;-145.69;43.79;52190.91;5112708;28;20281;-83
2023/11/20 09:02:08;;;;;;;9.40;1.70;;;;;;;-145.69;44.17;52232.50;5112446;28;20225;-83
2023/11/20 09:04:36;;;;;;;11.43;1.58;;;;;;;-145.69;45.57;52230.50;5132586;28;20284;-82
2023/11/20 09:07:02;;;;;;;12.02;1.60;;;;;;;-145.69;45.02;52230.50;5117111;28;20226;-81
2023/11/20 09:09:29;;;;;;;10.23;1.48;;;;;;;-145.69;46.06;52224.56;5112927;28;20201;-81
2023/11/20 09:11:58;;;;;;;3.53;1.15;;;;;;;-145.69;45.68;52242.38;5112795;28;20205;-82
2023/11/20 09:14:26;;;;;;;8.68;1.35;;;;;;;-145.69;45.50;52222.59;5112432;28;20197;-82
2023/11/20 09:16:53;;;;;;;7.05;1.60;;;;;;;-145.69;45.04;52224.56;5112389;28;20300;-83
2023/11/20 09:19:19;;;;;;;4.18;1.00;;;;;;;-145.69;45.50;52246.34;5112581;28;20648;-83
2023/11/20 09:21:48;;;;;;;11.25;1.52;;;;;;;-145.69;44.82;52210.72;5112845;28;20232;-80
2023/11/20 09:24:14;;;;;;;4.22;1.10;;;;;;;-145.69;45.06;52214.66;5113342;28;20201;-81
2023/11/20 09:26:44;;;;;;;12.20;1.70;;;;;;;-145.69;44.83;52214.66;5116472;27;20292;-80
2023/11/20 09:29:16;;;;;;;6.60;1.40;;;;;;;-145.69;44.53;52202.78;5116287;28;20201;-80
2023/11/20 09:31:44;;;;;;;6.13;1.73;;;;;;;-145.69;44.32;52230.50;5116487;28;20233;-80
2023/11/20 09:34:11;;;;;;;10.73;1.38;;;;;;;-145.69;44.21;52208.72;5116040;27;20201;-81
2023/11/20 09:36:38;;;;;;;12.70;1.58;;;;;;;-145.69;44.20;52212.69;5116327;28;20254;-80
2023/11/20 09:39:06;;;;;;;8.98;1.50;;;;;;;-145.69;44.81;52228.53;5116078;28;20204;-81
2023/11/20 09:41:42;;;;;;;10.07;1.65;;;;;;;-145.69;44.14;52230.50;5115929;28;20743;-79
2023/11/20 09:44:13;;;;;;;8.80;1.52;;;;;;;-145.69;44.88;52204.75;5116206;28;20237;-79
2023/11/20 09:46:44;;;;;;;10.68;1.38;;;;;;;-145.69;45.41;52218.63;5116122;28;20204;-80
2023/11/20 09:49:16;;;;;;;3.63;1.05;;;;;;;-145.69;44.40;52210.72;5115638;28;20209;-80
2023/11/20 09:51:46;;;;;;;6.72;1.17;;;;;;;-145.69;45.12;52248.34;5115743;28;20208;-80
2023/11/20 09:54:17;;;;;;;9.63;1.45;;;;;;;-145.69;44.04;52230.50;5115949;28;20258;-81
2023/11/20 09:56:45;;;;;;;12.77;1.17;;;;;;;-145.69;44.02;52202.78;5116033;28;20200;-81
2023/11/20 09:59:12;;;;;;;7.80;1.55;;;;;;;-145.69;44.33;52202.78;5115882;28;20291;-81
2023/11/20 10:01:40;;;;;;;4.20;1.17;;;;;;;-145.69;44.10;52222.59;5115357;28;20217;-80
2023/11/20 10:04:16;;;;;;;9.15;1.25;;;;;;;-145.69;44.65;52228.53;5115486;28;20201;-81
2023/11/20 10:06:46;;;;;;;6.88;1.38;;;;;;;-145.69;43.96;52236.44;5115008;28;20224;-80
2023/11/20 10:09:16;;;;;;;7.32;1.40;;;;;;;-145.69;43.92;52222.59;5095204;28;20653;-81
2023/11/20 10:11:45;;;;;;;7.13;1.23;;;;;;;-145.69;43.61;52234.47;5095414;28;20202;-80
2023/11/20 10:14:19;;;;;;;6.60;1.50;;;;;;;-145.69;44.24;52220.59;5095413;28;20271;-81
2023/11/20 10:16:49;;;;;;;9.75;1.55;;;;;;;-145.69;44.50;52220.59;5095029;28;20202;-81
2023/11/20 10:19:15;;;;;;;6.00;1.23;;;;;;;-145.69;45.16;52250.31;5095183;28;20602;-80
2023/11/20 10:21:47;;;;;;;9.75;1.45;;;;;;;-145.69;43.84;52246.34;5094737;28;20275;-79
2023/11/20 10:24:18;;;;;;;5.57;1.25;;;;;;;-145.69;44.17;52214.66;5094623;28;20201;-79
2023/11/20 10:26:46;;;;;;;8.55;1.25;;;;;;;-145.69;44.20;52226.53;5094325;28;20205;-78
2023/11/20 10:29:13;;;;;;;19.15;4.65;;;;;;;-145.69;44.35;52190.91;5094204;28;20279;-79
2023/11/20 10:31:43;;;;;;;9.35;1.13;;;;;;;-145.69;44.13;52236.44;5094342;28;20263;-79
2023/11/20 10:34:10;;;;;;;4.20;0.98;;;;;;;-145.69;43.58;52228.53;5110040;28;20198;-79
2023/11/20 10:36:37;;;;;;;4.53;1.20;;;;;;;-145.69;43.64;52190.91;5115161;28;20251;-78
2023/11/20 10:39:05;;;;;;;9.02;1.52;;;;;;;-145.69;43.03;52208.72;5114519;28;20736;-79
2023/11/20 10:41:40;;;;;;;9.07;1.10;;;;;;;-145.69;43.51;52200.81;5114873;28;20225;-78
2023/11/20 10:44:09;;;;;;;6.60;1.30;;;;;;;-145.69;42.28;52196.84;5114754;28;20208;-78
2023/11/20 10:46:36;;;;;;;9.20;1.30;;;;;;;-145.69;42.98;52190.91;5115011;28;20204;-78
2023/11/20 10:49:08;;;;;;;5.05;1.15;;;;;;;-145.69;42.41;52202.78;5103983;28;20202;-81
2023/11/20 10:51:37;;;;;;;6.38;1.25;;;;;;;-145.69;42.33;52224.56;5094498;28;20206;-79
2023/11/20 10:54:14;;;;;;;4.28;0.82;;;;;;;-145.69;42.12;52196.84;5094121;28;20538;-79
2023/11/20 10:56:46;;;;;;;3.55;0.85;;;;;;;-145.69;42.10;52242.38;5094247;28;20206;-79
2023/11/20 10:59:19;;;;;;;10.20;1.10;;;;;;;-145.69;42.52;52194.88;5094359;28;20225;-80
2023/11/20 11:01:45;;;;;;;9.02;1.75;;;;;;;-145.69;43.89;52179.03;5094366;28;20320;-79
2023/11/20 11:04:13;;;;;;;5.72;1.00;;;;;;;-145.69;42.96;52214.66;5113957;28;20200;-79
2023/11/20 11:06:43;;;;;;;4.50;0.80;;;;;;;-145.69;41.52;52159.22;5113703;28;20200;-79
2023/11/20 11:09:12;;;;;;;6.53;1.17;;;;;;;-145.69;41.48;52224.56;5113979;28;20284;-79
2023/11/20 11:11:41;;;;;;;7.00;1.27;;;;;;;-145.69;42.01;52173.09;5114385;28;20205;-79
2023/11/20 11:14:10;;;;;;;5.90;1.05;;;;;;;-145.69;41.39;52218.63;5112437;28;20243;-79
2023/11/20 11:16:41;;;;;;;5.43;1.00;;;;;;;-145.69;42.07;52202.78;5113870;28;20202;-79
2023/11/20 11:19:09;;;;;;;9.25;1.40;;;;;;;-145.69;42.87;52163.19;5114001;28;20201;-79